createdAt,value
2022-10-17T00:00:41.866Z,16.40
2022-10-17T00:03:35.307Z,17.50
2022-10-17T00:06:12.377Z,15.60
2022-10-17T00:08:46.662Z,15.80
2022-10-17T00:11:23.418Z,15.40
2022-10-17T00:13:58.042Z,16.30
2022-10-17T00:16:34.611Z,16.00
2022-10-17T00:19:08.626Z,16.10
2022-10-17T00:21:42.290Z,17.30
2022-10-17T00:24:15.664Z,15.90
2022-10-17T00:26:48.774Z,15.50
2022-10-17T00:29:22.019Z,16.60
2022-10-17T00:31:58.401Z,17.60
2022-10-17T00:34:32.671Z,16.30
2022-10-17T00:37:06.319Z,17.70
2022-10-17T00:39:39.918Z,15.70
2022-10-17T00:42:15.911Z,16.00
2022-10-17T00:45:09.470Z,15.40
2022-10-17T00:47:43.789Z,16.50
2022-10-17T00:50:18.543Z,17.20
2022-10-17T00:52:53.479Z,18.10
2022-10-17T00:55:32.949Z,17.70
2022-10-17T00:58:08.216Z,17.80
2022-10-17T01:00:42.733Z,15.80
2022-10-17T01:03:16.232Z,17.10
2022-10-17T01:05:50.225Z,18.10
2022-10-17T01:08:24.535Z,17.60
2022-10-17T01:11:09.087Z,17.80
2022-10-17T01:13:45.930Z,15.90
2022-10-17T01:16:24.292Z,16.30
2022-10-17T01:19:04.487Z,16.80
2022-10-17T01:21:56.673Z,17.30
2022-10-17T01:24:50.823Z,16.40
2022-10-17T01:27:54.480Z,17.20
2022-10-17T01:31:06.775Z,16.20
2022-10-17T01:33:52.554Z,15.60
2022-10-17T01:36:38.237Z,17.10
2022-10-17T01:39:20.178Z,18.70
2022-10-17T01:42:00.894Z,17.00
2022-10-17T01:44:42.438Z,18.60
2022-10-17T01:47:21.286Z,17.20
2022-10-17T01:52:31.925Z,16.00
2022-10-17T01:55:10.378Z,16.60
2022-10-17T01:57:48.218Z,16.10
2022-10-17T02:00:24.867Z,16.80
2022-10-17T02:03:01.206Z,17.90
2022-10-17T02:05:38.778Z,16.20
2022-10-17T02:08:13.347Z,15.60
2022-10-17T02:10:56.131Z,15.70
2022-10-17T02:13:42.333Z,16.40
2022-10-17T02:16:29.801Z,17.00
2022-10-17T02:19:20.122Z,16.50
2022-10-17T02:22:02.279Z,17.30
2022-10-17T02:24:39.373Z,15.30
2022-10-17T02:27:22.045Z,15.80
2022-10-17T02:30:05.408Z,15.10
2022-10-17T02:32:49.411Z,16.00
2022-10-17T02:35:31.144Z,16.00
2022-10-17T02:38:06.890Z,16.60
2022-10-17T02:40:42.882Z,14.80
2022-10-17T02:43:16.644Z,15.60
2022-10-17T02:45:52.006Z,15.10
2022-10-17T02:48:32.817Z,15.70
2022-10-17T02:51:15.007Z,15.50
2022-10-17T02:53:57.267Z,15.50
2022-10-17T02:56:37.406Z,17.00
2022-10-17T02:59:16.622Z,15.40
2022-10-17T03:01:51.907Z,14.40
2022-10-17T03:04:26.219Z,15.90
2022-10-17T03:07:00.187Z,16.20
2022-10-17T03:09:33.969Z,15.70
2022-10-17T03:12:08.192Z,16.70
2022-10-17T03:14:41.829Z,15.80
2022-10-17T03:17:15.585Z,15.10
2022-10-17T03:19:49.116Z,14.50
2022-10-17T03:22:22.541Z,15.30
2022-10-17T03:24:55.908Z,14.80
2022-10-17T03:27:29.873Z,15.60
2022-10-17T03:30:03.760Z,15.70
2022-10-17T03:32:38.566Z,16.80
2022-10-17T03:35:15.252Z,16.10
2022-10-17T03:37:51.228Z,15.20
2022-10-17T03:40:26.565Z,14.30
2022-10-17T03:43:00.769Z,15.20
2022-10-17T03:45:35.254Z,15.90
2022-10-17T03:48:09.591Z,16.00
2022-10-17T03:50:43.099Z,17.60
2022-10-17T03:53:16.790Z,16.30
2022-10-17T03:55:50.702Z,16.20
2022-10-17T03:58:24.742Z,16.00
2022-10-17T04:00:59.667Z,16.40
2022-10-17T04:03:33.796Z,17.10
2022-10-17T04:06:10.387Z,16.50
2022-10-17T04:08:45.906Z,17.20
2022-10-17T04:14:01.775Z,15.30
2022-10-17T04:16:37.489Z,15.20
2022-10-17T04:19:18.699Z,16.40
2022-10-17T04:21:53.873Z,16.30
2022-10-17T04:24:28.218Z,17.20
2022-10-17T04:27:08.977Z,17.10
2022-10-17T04:29:45.754Z,16.90
2022-10-17T04:32:26.386Z,16.30
2022-10-17T04:35:11.113Z,17.60
2022-10-17T04:37:46.968Z,19.30
2022-10-17T04:40:24.771Z,17.80
2022-10-17T04:42:58.750Z,17.20
2022-10-17T04:45:38.005Z,17.40
2022-10-17T04:48:11.966Z,16.70
2022-10-17T04:50:54.784Z,18.00
2022-10-17T04:53:48.150Z,17.60
2022-10-17T04:56:24.090Z,18.70
2022-10-17T04:58:57.724Z,18.90
2022-10-17T05:01:31.343Z,17.70
2022-10-17T05:04:06.088Z,17.40
2022-10-17T05:06:40.727Z,17.00
2022-10-17T05:09:43.357Z,18.50
2022-10-17T05:12:16.897Z,18.30
2022-10-17T05:14:51.108Z,19.40
2022-10-17T05:17:25.020Z,19.30
2022-10-17T05:19:58.248Z,17.90
2022-10-17T05:22:32.006Z,17.40
2022-10-17T05:25:06.175Z,17.20
2022-10-17T05:27:40.242Z,19.00
2022-10-17T05:30:15.618Z,17.40
2022-10-17T05:32:49.821Z,17.90
2022-10-17T05:35:23.609Z,19.20
2022-10-17T05:37:59.616Z,18.10
2022-10-17T05:40:34.016Z,17.70
2022-10-17T05:43:07.924Z,21.80
2022-10-17T05:45:41.525Z,29.80
2022-10-17T05:48:16.722Z,28.10
2022-10-17T05:50:50.458Z,27.60
2022-10-17T05:53:24.286Z,25.30
2022-10-17T05:56:02.738Z,22.20
2022-10-17T05:58:49.949Z,19.00
2022-10-17T06:01:33.499Z,18.00
2022-10-17T06:04:07.298Z,20.50
2022-10-17T06:06:42.157Z,20.30
2022-10-17T06:09:16.133Z,20.70
2022-10-17T06:11:52.701Z,20.00
2022-10-17T06:14:26.800Z,18.50
2022-10-17T06:17:04.425Z,18.80
2022-10-17T06:19:37.999Z,19.80
2022-10-17T06:22:12.552Z,21.30
2022-10-17T06:24:47.210Z,18.80
2022-10-17T06:27:21.751Z,20.20
2022-10-17T06:29:55.966Z,20.00
2022-10-17T06:32:30.179Z,20.50
2022-10-17T06:35:04.066Z,21.60
2022-10-17T06:37:39.311Z,21.30
2022-10-17T06:40:17.614Z,21.70
2022-10-17T06:42:51.772Z,20.70
2022-10-17T06:45:51.524Z,20.50
2022-10-17T06:48:36.813Z,23.00
2022-10-17T06:51:40.392Z,22.10
2022-10-17T06:54:16.232Z,21.70
2022-10-17T06:57:11.807Z,20.10
2022-10-17T07:00:06.222Z,20.50
2022-10-17T07:02:47.687Z,21.50
2022-10-17T07:05:21.040Z,23.00
2022-10-17T07:07:54.669Z,22.20
2022-10-17T07:10:28.322Z,23.30
2022-10-17T07:13:02.009Z,21.10
2022-10-17T07:15:40.366Z,19.60
2022-10-17T07:18:13.919Z,19.70
2022-10-17T07:20:54.496Z,21.80
2022-10-17T07:23:28.366Z,19.30
2022-10-17T07:26:07.727Z,20.30
2022-10-17T07:28:44.225Z,21.60
2022-10-17T07:31:38.534Z,20.60
2022-10-17T07:34:12.751Z,21.70
2022-10-17T07:36:47.880Z,20.00
2022-10-17T07:39:21.807Z,21.50
2022-10-17T07:41:55.791Z,20.70
2022-10-17T07:44:30.367Z,21.20
2022-10-17T07:47:04.741Z,19.40
2022-10-17T07:49:43.256Z,20.30
2022-10-17T07:54:49.529Z,20.50
2022-10-17T07:57:23.068Z,20.80
2022-10-17T07:59:56.589Z,19.90
2022-10-17T08:02:30.897Z,19.30
2022-10-17T08:05:04.749Z,21.40
2022-10-17T08:07:38.194Z,19.70
2022-10-17T08:10:13.360Z,20.50
2022-10-17T08:12:47.808Z,20.30
2022-10-17T08:15:21.827Z,20.20
2022-10-17T08:17:56.056Z,19.70
2022-10-17T08:20:29.368Z,20.70
2022-10-17T08:23:03.033Z,20.50
2022-10-17T08:25:36.895Z,20.30
2022-10-17T08:28:10.906Z,21.40
2022-10-17T08:30:44.472Z,20.90
2022-10-17T08:33:17.772Z,19.60
2022-10-17T08:35:52.813Z,19.70
2022-10-17T08:38:27.967Z,19.80
2022-10-17T08:41:05.023Z,19.50
2022-10-17T08:43:57.244Z,18.90
2022-10-17T08:46:37.531Z,18.30
2022-10-17T08:49:18.408Z,18.30
2022-10-17T08:52:00.857Z,17.90
2022-10-17T08:54:43.249Z,18.20
2022-10-17T08:57:18.065Z,17.10
2022-10-17T08:59:58.521Z,18.10
2022-10-17T09:02:43.046Z,18.10
2022-10-17T09:05:48.402Z,18.20
2022-10-17T09:08:35.595Z,17.40
2022-10-17T09:11:19.408Z,19.10
2022-10-17T09:14:07.692Z,18.40
2022-10-17T09:17:01.825Z,18.30
2022-10-17T09:19:39.505Z,17.90
2022-10-17T09:22:19.148Z,17.20
2022-10-17T09:24:57.374Z,17.10
2022-10-17T09:30:40.530Z,15.60
2022-10-17T09:33:35.683Z,16.00
2022-10-17T09:36:22.018Z,17.00
2022-10-17T09:38:57.477Z,16.10
2022-10-17T09:41:51.012Z,15.70
2022-10-17T09:44:27.448Z,17.30
2022-10-17T09:47:19.091Z,16.30
2022-10-17T09:49:54.101Z,17.60
2022-10-17T09:52:32.659Z,17.40
2022-10-17T09:55:17.991Z,16.60
2022-10-17T09:57:59.582Z,17.00
2022-10-17T10:00:36.333Z,16.50
2022-10-17T10:03:19.899Z,15.90
2022-10-17T10:06:14.825Z,17.70
2022-10-17T10:08:55.856Z,16.00
2022-10-17T10:11:49.093Z,16.10
2022-10-17T10:14:30.181Z,14.30
2022-10-17T10:17:06.462Z,15.00
2022-10-17T10:19:40.271Z,14.60
2022-10-17T10:22:19.167Z,15.30
2022-10-17T10:25:15.684Z,13.90
2022-10-17T10:27:49.955Z,14.40
2022-10-17T10:30:34.933Z,14.70
2022-10-17T10:33:15.266Z,14.10
2022-10-17T10:35:58.302Z,15.00
2022-10-17T10:38:32.406Z,15.10
2022-10-17T10:41:09.459Z,15.00
2022-10-17T10:43:47.770Z,14.00
2022-10-17T10:46:23.801Z,13.80
2022-10-17T10:49:00.553Z,13.90
2022-10-17T10:51:40.338Z,14.90
2022-10-17T10:54:19.810Z,14.20
2022-10-17T10:56:55.179Z,13.70
2022-10-17T10:59:37.255Z,13.80
2022-10-17T11:02:21.083Z,13.90
2022-10-17T11:05:00.106Z,14.20
2022-10-17T11:07:36.835Z,13.00
2022-10-17T11:10:16.367Z,13.40
2022-10-17T11:12:54.351Z,14.70
2022-10-17T11:15:36.117Z,15.40
2022-10-17T11:18:15.201Z,14.00
2022-10-17T11:20:55.849Z,12.80
2022-10-17T11:23:37.478Z,12.80
2022-10-17T11:26:16.375Z,13.20
2022-10-17T11:28:50.338Z,14.00
2022-10-17T11:31:28.358Z,13.70
2022-10-17T11:34:07.215Z,14.30
2022-10-17T11:36:45.132Z,13.60
2022-10-17T11:39:22.336Z,13.30
2022-10-17T11:42:03.317Z,13.20
2022-10-17T11:44:39.395Z,13.90
2022-10-17T11:47:23.581Z,13.90
2022-10-17T11:53:02.199Z,13.90
2022-10-17T11:55:38.752Z,13.10
2022-10-17T11:58:31.847Z,13.10
2022-10-17T12:01:16.570Z,13.60
2022-10-17T12:04:15.651Z,13.50
2022-10-17T12:07:01.377Z,13.50
2022-10-17T12:09:43.220Z,13.10
2022-10-17T12:12:28.694Z,14.20
2022-10-17T12:15:32.511Z,14.60
2022-10-17T12:18:06.878Z,12.80
2022-10-17T12:20:41.663Z,14.70
2022-10-17T12:23:29.821Z,13.20
2022-10-17T12:26:05.504Z,13.00
2022-10-17T12:28:58.291Z,13.10
2022-10-17T12:31:50.552Z,14.30
2022-10-17T12:34:25.899Z,14.40
2022-10-17T12:36:59.687Z,13.50
2022-10-17T12:39:56.084Z,14.10
2022-10-17T12:42:48.392Z,13.90
2022-10-17T12:45:53.061Z,13.60
2022-10-17T12:48:56.808Z,14.20
2022-10-17T12:51:35.852Z,14.50
2022-10-17T12:54:16.854Z,13.50
2022-10-17T12:56:52.090Z,14.80
2022-10-17T12:59:29.536Z,15.00
2022-10-17T13:02:14.730Z,14.30
2022-10-17T13:04:52.213Z,14.50
2022-10-17T13:07:27.175Z,13.60
2022-10-17T13:10:05.452Z,14.70
2022-10-17T13:12:42.194Z,13.80
2022-10-17T13:15:21.927Z,13.00
2022-10-17T13:18:03.386Z,12.80
2022-10-17T13:20:39.090Z,13.30
2022-10-17T13:23:28.140Z,14.00
2022-10-17T13:26:20.625Z,14.00
2022-10-17T13:31:45.614Z,13.40
2022-10-17T13:34:22.473Z,13.50
2022-10-17T13:36:58.341Z,13.20
2022-10-17T13:42:33.823Z,13.60
2022-10-17T13:45:15.538Z,13.70
2022-10-17T13:47:49.997Z,13.90
2022-10-17T13:50:44.283Z,14.70
2022-10-17T13:53:28.417Z,14.60
2022-10-17T13:56:30.564Z,14.80
2022-10-17T13:59:01.892Z,13.30
2022-10-17T14:01:36.752Z,14.10
2022-10-17T14:04:19.472Z,14.10
2022-10-17T14:06:54.566Z,13.60
2022-10-17T14:09:30.797Z,14.00
2022-10-17T14:12:11.150Z,14.80
2022-10-17T14:15:09.886Z,14.80
2022-10-17T14:17:46.119Z,15.20
2022-10-17T14:23:37.464Z,15.40
2022-10-17T14:26:17.485Z,14.90
2022-10-17T14:28:52.618Z,14.90
2022-10-17T14:31:36.610Z,15.00
2022-10-17T14:34:23.485Z,15.30
2022-10-17T14:36:58.663Z,14.90
2022-10-17T14:39:33.729Z,15.60
2022-10-17T14:42:10.693Z,15.00
2022-10-17T14:44:51.014Z,15.50
2022-10-17T14:47:43.650Z,15.60
2022-10-17T14:50:27.467Z,14.90
2022-10-17T14:53:07.241Z,15.10
2022-10-17T14:55:59.653Z,15.00
2022-10-17T14:58:37.311Z,14.70
2022-10-17T15:01:11.382Z,15.40
2022-10-17T15:03:46.021Z,15.90
2022-10-17T15:06:23.034Z,15.70
2022-10-17T15:08:57.231Z,17.90
2022-10-17T15:11:31.542Z,17.00
2022-10-17T15:14:06.031Z,19.10
2022-10-17T15:16:40.733Z,17.70
2022-10-17T15:19:16.059Z,19.20
2022-10-17T15:21:49.424Z,18.80
2022-10-17T15:24:22.941Z,19.00
2022-10-17T15:26:56.920Z,17.80
2022-10-17T15:29:30.742Z,16.50
2022-10-17T15:32:05.513Z,17.50
2022-10-17T15:34:38.982Z,16.90
2022-10-17T15:37:22.720Z,16.20
2022-10-17T15:39:56.550Z,17.10
2022-10-17T15:42:32.585Z,16.10
2022-10-17T15:47:51.311Z,14.60
2022-10-17T15:50:25.118Z,16.00
2022-10-17T15:52:59.049Z,16.10
2022-10-17T15:55:35.581Z,16.60
2022-10-17T15:58:13.401Z,14.90
2022-10-17T16:00:50.052Z,16.00
2022-10-17T16:03:25.291Z,15.70
2022-10-17T16:06:02.654Z,15.90
2022-10-17T16:08:37.546Z,16.00
2022-10-17T16:11:19.890Z,16.50
2022-10-17T16:13:58.915Z,15.30
2022-10-17T16:16:32.610Z,15.30
2022-10-17T16:19:07.377Z,15.80
2022-10-17T16:21:43.413Z,16.20
2022-10-17T16:24:18.244Z,16.30
2022-10-17T16:26:51.812Z,17.00
2022-10-17T16:29:26.060Z,16.30
2022-10-17T16:32:00.081Z,17.20
2022-10-17T16:34:35.404Z,17.40
2022-10-17T16:37:09.265Z,16.50
2022-10-17T16:39:43.170Z,15.90
2022-10-17T16:42:17.450Z,17.20
2022-10-17T16:44:51.839Z,17.50
2022-10-17T16:47:26.130Z,16.70
2022-10-17T16:50:00.350Z,18.10
2022-10-17T16:52:34.272Z,17.70
2022-10-17T16:55:08.763Z,19.50
2022-10-17T17:00:24.746Z,17.60
2022-10-17T17:02:58.776Z,19.10
2022-10-17T17:05:33.629Z,21.10
2022-10-17T17:08:11.808Z,19.30
2022-10-17T17:10:52.182Z,21.60
2022-10-17T17:13:26.079Z,21.40
2022-10-17T17:16:09.554Z,21.60
2022-10-17T17:18:44.540Z,20.50
2022-10-17T17:21:19.208Z,20.40
2022-10-17T17:23:53.322Z,20.50
2022-10-17T17:26:28.974Z,22.00
2022-10-17T17:29:04.259Z,22.60
2022-10-17T17:31:40.065Z,21.90
2022-10-17T17:34:18.016Z,21.50
2022-10-17T17:39:25.841Z,21.80
2022-10-17T17:41:59.942Z,21.70
2022-10-17T17:44:35.150Z,22.20
2022-10-17T17:47:09.544Z,25.00
2022-10-17T17:49:43.799Z,24.50
2022-10-17T17:52:17.148Z,25.20
2022-10-17T17:54:51.183Z,25.80
2022-10-17T17:57:26.112Z,24.20
2022-10-17T18:00:35.943Z,26.30
2022-10-17T18:03:28.402Z,24.90
2022-10-17T18:06:02.637Z,24.50
2022-10-17T18:08:39.508Z,25.30
2022-10-17T18:11:17.015Z,24.10
2022-10-17T18:13:57.168Z,21.40
2022-10-17T18:16:32.214Z,23.30
2022-10-17T18:19:09.982Z,22.80
2022-10-17T18:21:45.062Z,24.60
2022-10-17T18:24:18.990Z,23.00
2022-10-17T18:26:57.350Z,22.60
2022-10-17T18:29:33.900Z,22.60
2022-10-17T18:32:08.858Z,21.00
2022-10-17T18:34:42.172Z,21.30
2022-10-17T18:37:16.720Z,23.70
2022-10-17T18:39:53.369Z,23.30
2022-10-17T18:42:27.254Z,22.00
2022-10-17T18:45:01.593Z,22.60
2022-10-17T18:47:37.268Z,23.10
2022-10-17T18:50:12.835Z,19.70
2022-10-17T18:52:46.934Z,21.10
2022-10-17T18:55:21.550Z,21.20
2022-10-17T18:57:56.304Z,22.30
2022-10-17T19:00:31.017Z,22.50
2022-10-17T19:03:06.357Z,21.70
2022-10-17T19:05:41.487Z,21.50
2022-10-17T19:08:16.388Z,21.80
2022-10-17T19:10:49.699Z,22.10
2022-10-17T19:13:23.484Z,22.20
2022-10-17T19:15:56.545Z,23.20
2022-10-17T19:18:30.498Z,21.40
2022-10-17T19:21:07.410Z,22.20
2022-10-17T19:23:41.477Z,21.40
2022-10-17T19:26:15.604Z,19.60
2022-10-17T19:28:50.045Z,20.60
2022-10-17T19:31:27.292Z,20.90
2022-10-17T19:34:02.868Z,21.10
2022-10-17T19:36:38.490Z,21.10
2022-10-17T19:39:14.461Z,19.70
2022-10-17T19:41:49.931Z,19.20
2022-10-17T19:44:23.660Z,19.80
2022-10-17T19:46:58.979Z,20.20
2022-10-17T19:49:34.610Z,21.20
2022-10-17T19:52:08.742Z,20.60
2022-10-17T19:54:43.757Z,19.50
2022-10-17T19:57:18.641Z,18.90
2022-10-17T19:59:55.165Z,19.80
2022-10-17T20:02:31.026Z,19.80
2022-10-17T20:05:18.208Z,19.60
2022-10-17T20:07:53.455Z,19.80
2022-10-17T20:10:27.802Z,21.20
2022-10-17T20:13:01.231Z,20.10
2022-10-17T20:15:35.104Z,17.90
2022-10-17T20:18:09.755Z,20.20
2022-10-17T20:20:43.533Z,21.50
2022-10-17T20:23:17.163Z,21.20
2022-10-17T20:26:06.679Z,20.90
2022-10-17T20:28:52.972Z,21.00
2022-10-17T20:31:26.615Z,19.50
2022-10-17T20:34:01.276Z,18.70
2022-10-17T20:36:37.647Z,17.90
2022-10-17T20:39:11.951Z,21.00
2022-10-17T20:41:45.932Z,19.10
2022-10-17T20:44:19.057Z,18.50
2022-10-17T20:47:01.813Z,17.10
2022-10-17T20:49:36.254Z,19.10
2022-10-17T20:52:09.665Z,19.10
2022-10-17T20:54:43.280Z,19.30
2022-10-17T20:57:16.894Z,19.10
2022-10-17T20:59:50.854Z,19.10
2022-10-17T21:02:24.172Z,17.10
2022-10-17T21:04:57.446Z,18.90
2022-10-17T21:07:31.180Z,19.40
2022-10-17T21:10:30.657Z,19.80
2022-10-17T21:13:00.183Z,19.10
2022-10-17T21:15:34.254Z,19.10
2022-10-17T21:18:07.465Z,17.70
2022-10-17T21:20:41.166Z,16.70
2022-10-17T21:23:15.281Z,18.50
2022-10-17T21:25:48.576Z,20.20
2022-10-17T21:28:21.622Z,19.90
2022-10-17T21:30:54.982Z,19.00
2022-10-17T21:33:30.166Z,18.00
2022-10-17T21:36:03.253Z,18.40
2022-10-17T21:38:37.993Z,18.30
2022-10-17T21:41:12.549Z,19.70
2022-10-17T21:43:47.051Z,19.80
2022-10-17T21:46:21.193Z,20.10
2022-10-17T21:48:54.955Z,18.80
2022-10-17T21:51:29.007Z,18.90
2022-10-17T21:54:05.611Z,19.10
2022-10-17T21:56:39.442Z,18.90
2022-10-17T21:59:12.962Z,19.90
2022-10-17T22:01:48.261Z,19.30
2022-10-17T22:04:22.679Z,19.10
2022-10-17T22:06:56.173Z,18.80
2022-10-17T22:09:29.929Z,19.20
2022-10-17T22:12:03.292Z,19.90
2022-10-17T22:14:36.369Z,20.40
2022-10-17T22:17:10.099Z,20.50
2022-10-17T22:19:43.529Z,19.60
2022-10-17T22:22:17.058Z,18.50
2022-10-17T22:24:50.807Z,19.00
2022-10-17T22:27:24.405Z,19.10
2022-10-17T22:29:57.615Z,19.10
2022-10-17T22:32:31.292Z,19.50
2022-10-17T22:35:04.552Z,19.30
2022-10-17T22:37:37.612Z,19.50
2022-10-17T22:40:12.506Z,18.90
2022-10-17T22:42:45.733Z,21.00
2022-10-17T22:45:18.941Z,19.40
2022-10-17T22:47:54.205Z,19.60
2022-10-17T22:50:28.197Z,18.50
2022-10-17T22:53:01.674Z,17.20
2022-10-17T22:55:35.825Z,19.10
2022-10-17T22:58:09.007Z,18.30
2022-10-17T23:00:42.389Z,19.20
2022-10-17T23:03:15.586Z,19.80
2022-10-17T23:05:49.211Z,18.60
2022-10-17T23:08:22.825Z,17.30
2022-10-17T23:10:56.647Z,18.10
2022-10-17T23:13:30.143Z,17.80
2022-10-17T23:16:03.917Z,19.50
2022-10-17T23:18:38.372Z,19.30
2022-10-17T23:21:12.200Z,19.70
2022-10-17T23:23:45.535Z,17.80
2022-10-17T23:26:19.050Z,18.60
2022-10-17T23:28:56.792Z,19.00
2022-10-17T23:31:30.930Z,19.30
2022-10-17T23:34:04.249Z,19.10
2022-10-17T23:36:38.746Z,18.70
2022-10-17T23:39:13.203Z,17.40
2022-10-17T23:41:46.313Z,16.90
2022-10-17T23:44:19.559Z,18.00
2022-10-17T23:46:53.139Z,17.50
2022-10-17T23:49:27.192Z,18.50
2022-10-17T23:52:00.359Z,13.70
2022-10-17T23:54:33.999Z,13.20
2022-10-17T23:57:07.435Z,12.00
2022-10-17T23:59:40.888Z,10.40
